sensor_id;sensor_type;location;lat;lon;timestamp;P1;durP1;ratioP1;P2;durP2;ratioP2
22172;SDS011;11252;50.596;17.648;2023-02-28T00:01:27;45.53;;;29.43;;
22172;SDS011;11252;50.596;17.648;2023-02-28T00:03:55;45.70;;;28.57;;
22172;SDS011;11252;50.596;17.648;2023-02-28T00:06:22;26.73;;;17.27;;
22172;SDS011;11252;50.596;17.648;2023-02-28T00:08:50;34.10;;;19.30;;
22172;SDS011;11252;50.596;17.648;2023-02-28T00:11:18;25.57;;;15.23;;
22172;SDS011;11252;50.596;17.648;2023-02-28T00:13:46;27.97;;;16.83;;
22172;SDS011;11252;50.596;17.648;2023-02-28T00:16:15;25.47;;;15.13;;
22172;SDS011;11252;50.596;17.648;2023-02-28T00:18:45;26.37;;;15.47;;
22172;SDS011;11252;50.596;17.648;2023-02-28T00:21:15;28.57;;;16.20;;
22172;SDS011;11252;50.596;17.648;2023-02-28T00:23:43;29.23;;;16.57;;
22172;SDS011;11252;50.596;17.648;2023-02-28T00:26:10;26.80;;;15.27;;
22172;SDS011;11252;50.596;17.648;2023-02-28T00:28:38;34.40;;;18.37;;
22172;SDS011;11252;50.596;17.648;2023-02-28T00:31:05;27.63;;;16.10;;
22172;SDS011;11252;50.596;17.648;2023-02-28T00:33:33;29.30;;;16.50;;
22172;SDS011;11252;50.596;17.648;2023-02-28T00:36:01;29.33;;;15.70;;
22172;SDS011;11252;50.596;17.648;2023-02-28T00:38:37;27.43;;;15.33;;
22172;SDS011;11252;50.596;17.648;2023-02-28T00:41:05;23.47;;;14.60;;
22172;SDS011;11252;50.596;17.648;2023-02-28T00:43:34;31.47;;;18.90;;
22172;SDS011;11252;50.596;17.648;2023-02-28T00:46:03;30.97;;;17.40;;
22172;SDS011;11252;50.596;17.648;2023-02-28T00:48:31;35.27;;;20.47;;
22172;SDS011;11252;50.596;17.648;2023-02-28T00:50:59;31.87;;;19.20;;
22172;SDS011;11252;50.596;17.648;2023-02-28T00:53:27;31.03;;;19.63;;
22172;SDS011;11252;50.596;17.648;2023-02-28T00:55:54;31.67;;;17.43;;
22172;SDS011;11252;50.596;17.648;2023-02-28T00:58:22;26.87;;;16.37;;
22172;SDS011;11252;50.596;17.648;2023-02-28T01:00:50;29.80;;;16.40;;
22172;SDS011;11252;50.596;17.648;2023-02-28T01:03:19;27.73;;;16.60;;
22172;SDS011;11252;50.596;17.648;2023-02-28T01:05:47;27.07;;;16.67;;
22172;SDS011;11252;50.596;17.648;2023-02-28T01:08:15;28.80;;;16.80;;
22172;SDS011;11252;50.596;17.648;2023-02-28T01:10:42;25.80;;;15.97;;
22172;SDS011;11252;50.596;17.648;2023-02-28T01:13:10;22.33;;;15.03;;
22172;SDS011;11252;50.596;17.648;2023-02-28T01:15:39;27.03;;;15.50;;
22172;SDS011;11252;50.596;17.648;2023-02-28T01:18:10;25.43;;;15.50;;
22172;SDS011;11252;50.596;17.648;2023-02-28T01:20:37;22.53;;;15.77;;
22172;SDS011;11252;50.596;17.648;2023-02-28T01:23:05;28.33;;;16.80;;
22172;SDS011;11252;50.596;17.648;2023-02-28T01:25:34;25.63;;;15.87;;
22172;SDS011;11252;50.596;17.648;2023-02-28T01:28:02;31.27;;;15.67;;
22172;SDS011;11252;50.596;17.648;2023-02-28T01:30:30;26.07;;;15.77;;
22172;SDS011;11252;50.596;17.648;2023-02-28T01:32:58;25.03;;;15.87;;
22172;SDS011;11252;50.596;17.648;2023-02-28T01:35:26;24.47;;;15.43;;
22172;SDS011;11252;50.596;17.648;2023-02-28T01:37:53;24.80;;;14.97;;
22172;SDS011;11252;50.596;17.648;2023-02-28T01:40:26;24.93;;;14.83;;
22172;SDS011;11252;50.596;17.648;2023-02-28T01:42:53;25.83;;;16.57;;
22172;SDS011;11252;50.596;17.648;2023-02-28T01:45:30;27.83;;;15.63;;
22172;SDS011;11252;50.596;17.648;2023-02-28T01:48:04;22.73;;;15.33;;
22172;SDS011;11252;50.596;17.648;2023-02-28T01:50:36;23.90;;;15.50;;
22172;SDS011;11252;50.596;17.648;2023-02-28T01:53:09;28.67;;;15.90;;
22172;SDS011;11252;50.596;17.648;2023-02-28T01:55:41;29.50;;;16.33;;
22172;SDS011;11252;50.596;17.648;2023-02-28T01:58:11;25.70;;;16.07;;
22172;SDS011;11252;50.596;17.648;2023-02-28T02:00:38;27.27;;;16.83;;
22172;SDS011;11252;50.596;17.648;2023-02-28T02:03:10;25.70;;;16.33;;
22172;SDS011;11252;50.596;17.648;2023-02-28T02:05:42;34.47;;;20.83;;
22172;SDS011;11252;50.596;17.648;2023-02-28T02:08:18;34.30;;;20.70;;
22172;SDS011;11252;50.596;17.648;2023-02-28T02:10:52;38.30;;;19.77;;
22172;SDS011;11252;50.596;17.648;2023-02-28T02:29:38;40.10;;;22.17;;
22172;SDS011;11252;50.596;17.648;2023-02-28T02:40:27;35.13;;;22.03;;
22172;SDS011;11252;50.596;17.648;2023-02-28T02:43:25;33.00;;;20.40;;
22172;SDS011;11252;50.596;17.648;2023-02-28T02:45:56;38.60;;;21.87;;
22172;SDS011;11252;50.596;17.648;2023-02-28T02:48:29;36.70;;;20.87;;
22172;SDS011;11252;50.596;17.648;2023-02-28T02:51:01;39.13;;;23.90;;
22172;SDS011;11252;50.596;17.648;2023-02-28T02:53:42;38.37;;;21.00;;
22172;SDS011;11252;50.596;17.648;2023-02-28T02:56:25;41.77;;;22.27;;
22172;SDS011;11252;50.596;17.648;2023-02-28T02:58:59;36.50;;;22.00;;
22172;SDS011;11252;50.596;17.648;2023-02-28T03:01:30;36.63;;;21.30;;
22172;SDS011;11252;50.596;17.648;2023-02-28T03:04:10;35.67;;;21.93;;
22172;SDS011;11252;50.596;17.648;2023-02-28T03:06:42;37.73;;;22.93;;
22172;SDS011;11252;50.596;17.648;2023-02-28T03:09:10;36.97;;;21.30;;
22172;SDS011;11252;50.596;17.648;2023-02-28T03:11:37;37.67;;;22.03;;
22172;SDS011;11252;50.596;17.648;2023-02-28T03:14:12;37.13;;;22.57;;
22172;SDS011;11252;50.596;17.648;2023-02-28T03:17:11;40.20;;;22.70;;
22172;SDS011;11252;50.596;17.648;2023-02-28T03:31:21;45.57;;;23.93;;
22172;SDS011;11252;50.596;17.648;2023-02-28T03:33:59;40.03;;;24.67;;
22172;SDS011;11252;50.596;17.648;2023-02-28T03:36:42;43.33;;;23.87;;
22172;SDS011;11252;50.596;17.648;2023-02-28T03:39:21;47.20;;;26.37;;
22172;SDS011;11252;50.596;17.648;2023-02-28T03:41:58;44.23;;;25.13;;
22172;SDS011;11252;50.596;17.648;2023-02-28T03:44:55;47.40;;;24.80;;
22172;SDS011;11252;50.596;17.648;2023-02-28T03:47:27;47.00;;;24.67;;
22172;SDS011;11252;50.596;17.648;2023-02-28T03:52:45;45.03;;;24.13;;
22172;SDS011;11252;50.596;17.648;2023-02-28T03:55:16;45.80;;;24.83;;
22172;SDS011;11252;50.596;17.648;2023-02-28T04:00:38;43.50;;;24.83;;
22172;SDS011;11252;50.596;17.648;2023-02-28T04:03:11;39.27;;;22.93;;
22172;SDS011;11252;50.596;17.648;2023-02-28T04:05:55;37.93;;;22.50;;
22172;SDS011;11252;50.596;17.648;2023-02-28T04:08:23;40.20;;;22.60;;
22172;SDS011;11252;50.596;17.648;2023-02-28T04:11:01;49.63;;;25.73;;
22172;SDS011;11252;50.596;17.648;2023-02-28T04:13:33;40.43;;;23.23;;
22172;SDS011;11252;50.596;17.648;2023-02-28T04:16:00;42.60;;;24.23;;
22172;SDS011;11252;50.596;17.648;2023-02-28T04:18:28;42.57;;;24.40;;
22172;SDS011;11252;50.596;17.648;2023-02-28T04:20:55;46.77;;;24.60;;
22172;SDS011;11252;50.596;17.648;2023-02-28T04:23:27;54.07;;;29.47;;
22172;SDS011;11252;50.596;17.648;2023-02-28T04:25:55;56.17;;;26.03;;
22172;SDS011;11252;50.596;17.648;2023-02-28T04:28:22;49.83;;;27.30;;
22172;SDS011;11252;50.596;17.648;2023-02-28T04:30:55;53.10;;;27.47;;
22172;SDS011;11252;50.596;17.648;2023-02-28T04:33:23;51.37;;;27.93;;
22172;SDS011;11252;50.596;17.648;2023-02-28T04:36:04;51.13;;;26.07;;
22172;SDS011;11252;50.596;17.648;2023-02-28T04:38:35;56.00;;;28.67;;
22172;SDS011;11252;50.596;17.648;2023-02-28T04:41:03;61.77;;;32.37;;
22172;SDS011;11252;50.596;17.648;2023-02-28T04:43:31;67.50;;;33.80;;
22172;SDS011;11252;50.596;17.648;2023-02-28T04:46:01;69.10;;;34.93;;
22172;SDS011;11252;50.596;17.648;2023-02-28T04:48:32;67.40;;;32.63;;
22172;SDS011;11252;50.596;17.648;2023-02-28T04:51:05;68.87;;;33.77;;
22172;SDS011;11252;50.596;17.648;2023-02-28T04:53:35;66.87;;;31.97;;
22172;SDS011;11252;50.596;17.648;2023-02-28T04:56:05;65.03;;;32.03;;
22172;SDS011;11252;50.596;17.648;2023-02-28T04:58:33;64.33;;;32.10;;
22172;SDS011;11252;50.596;17.648;2023-02-28T05:01:05;62.73;;;32.27;;
22172;SDS011;11252;50.596;17.648;2023-02-28T05:03:39;63.13;;;30.33;;
22172;SDS011;11252;50.596;17.648;2023-02-28T05:06:10;62.67;;;29.83;;
22172;SDS011;11252;50.596;17.648;2023-02-28T05:08:39;52.10;;;28.27;;
22172;SDS011;11252;50.596;17.648;2023-02-28T05:11:11;46.90;;;25.43;;
22172;SDS011;11252;50.596;17.648;2023-02-28T05:13:52;51.60;;;26.17;;
22172;SDS011;11252;50.596;17.648;2023-02-28T05:16:20;52.97;;;25.87;;
22172;SDS011;11252;50.596;17.648;2023-02-28T05:18:48;52.07;;;27.07;;
22172;SDS011;11252;50.596;17.648;2023-02-28T05:21:28;49.80;;;26.90;;
22172;SDS011;11252;50.596;17.648;2023-02-28T05:23:59;52.00;;;25.90;;
22172;SDS011;11252;50.596;17.648;2023-02-28T05:26:29;48.57;;;25.83;;
22172;SDS011;11252;50.596;17.648;2023-02-28T05:28:58;46.67;;;26.73;;
22172;SDS011;11252;50.596;17.648;2023-02-28T05:31:26;50.63;;;27.20;;
22172;SDS011;11252;50.596;17.648;2023-02-28T05:33:54;46.47;;;26.57;;
22172;SDS011;11252;50.596;17.648;2023-02-28T05:36:22;49.73;;;26.27;;
22172;SDS011;11252;50.596;17.648;2023-02-28T05:38:51;44.80;;;24.63;;
22172;SDS011;11252;50.596;17.648;2023-02-28T05:41:19;45.57;;;24.63;;
22172;SDS011;11252;50.596;17.648;2023-02-28T05:43:47;47.00;;;24.87;;
22172;SDS011;11252;50.596;17.648;2023-02-28T05:46:15;44.80;;;25.57;;
22172;SDS011;11252;50.596;17.648;2023-02-28T05:48:45;42.00;;;24.87;;
22172;SDS011;11252;50.596;17.648;2023-02-28T05:51:13;38.87;;;23.47;;
22172;SDS011;11252;50.596;17.648;2023-02-28T05:53:41;44.83;;;23.43;;
22172;SDS011;11252;50.596;17.648;2023-02-28T05:56:09;44.07;;;23.80;;
22172;SDS011;11252;50.596;17.648;2023-02-28T05:58:36;41.60;;;23.97;;
22172;SDS011;11252;50.596;17.648;2023-02-28T06:04:02;41.27;;;23.80;;
22172;SDS011;11252;50.596;17.648;2023-02-28T06:06:31;47.10;;;24.83;;
22172;SDS011;11252;50.596;17.648;2023-02-28T06:09:05;45.73;;;24.97;;
22172;SDS011;11252;50.596;17.648;2023-02-28T06:11:32;46.63;;;26.37;;
22172;SDS011;11252;50.596;17.648;2023-02-28T06:14:00;40.77;;;24.00;;
22172;SDS011;11252;50.596;17.648;2023-02-28T06:16:30;41.67;;;24.47;;
22172;SDS011;11252;50.596;17.648;2023-02-28T06:19:00;42.23;;;25.83;;
22172;SDS011;11252;50.596;17.648;2023-02-28T06:21:30;40.57;;;25.23;;
22172;SDS011;11252;50.596;17.648;2023-02-28T06:23:58;43.60;;;24.90;;
22172;SDS011;11252;50.596;17.648;2023-02-28T06:26:27;42.37;;;25.50;;
22172;SDS011;11252;50.596;17.648;2023-02-28T06:28:54;40.47;;;24.40;;
22172;SDS011;11252;50.596;17.648;2023-02-28T06:31:22;43.93;;;25.30;;
22172;SDS011;11252;50.596;17.648;2023-02-28T06:33:51;39.53;;;23.43;;
22172;SDS011;11252;50.596;17.648;2023-02-28T06:36:18;43.73;;;24.60;;
22172;SDS011;11252;50.596;17.648;2023-02-28T06:38:46;43.63;;;23.93;;
22172;SDS011;11252;50.596;17.648;2023-02-28T06:41:18;37.17;;;23.17;;
22172;SDS011;11252;50.596;17.648;2023-02-28T06:43:45;34.37;;;21.30;;
22172;SDS011;11252;50.596;17.648;2023-02-28T06:46:13;45.33;;;24.50;;
22172;SDS011;11252;50.596;17.648;2023-02-28T06:48:42;36.87;;;22.93;;
22172;SDS011;11252;50.596;17.648;2023-02-28T06:51:12;39.23;;;23.20;;
22172;SDS011;11252;50.596;17.648;2023-02-28T06:53:41;49.63;;;28.63;;
22172;SDS011;11252;50.596;17.648;2023-02-28T06:56:10;66.33;;;34.80;;
22172;SDS011;11252;50.596;17.648;2023-02-28T06:58:42;53.97;;;30.23;;
22172;SDS011;11252;50.596;17.648;2023-02-28T07:01:14;48.43;;;26.63;;
22172;SDS011;11252;50.596;17.648;2023-02-28T07:03:42;45.30;;;27.40;;
22172;SDS011;11252;50.596;17.648;2023-02-28T07:06:09;38.80;;;24.97;;
22172;SDS011;11252;50.596;17.648;2023-02-28T07:08:37;37.17;;;23.20;;
22172;SDS011;11252;50.596;17.648;2023-02-28T07:11:06;37.00;;;21.83;;
22172;SDS011;11252;50.596;17.648;2023-02-28T07:13:33;34.87;;;22.17;;
22172;SDS011;11252;50.596;17.648;2023-02-28T07:16:03;37.77;;;21.67;;
22172;SDS011;11252;50.596;17.648;2023-02-28T07:18:32;31.43;;;20.80;;
22172;SDS011;11252;50.596;17.648;2023-02-28T07:21:04;34.13;;;22.57;;
22172;SDS011;11252;50.596;17.648;2023-02-28T07:23:33;32.13;;;21.73;;
22172;SDS011;11252;50.596;17.648;2023-02-28T07:26:00;33.53;;;21.33;;
22172;SDS011;11252;50.596;17.648;2023-02-28T07:28:28;29.63;;;19.60;;
22172;SDS011;11252;50.596;17.648;2023-02-28T07:30:55;34.13;;;21.73;;
22172;SDS011;11252;50.596;17.648;2023-02-28T07:33:23;28.33;;;19.33;;
22172;SDS011;11252;50.596;17.648;2023-02-28T07:35:50;33.33;;;18.87;;
22172;SDS011;11252;50.596;17.648;2023-02-28T07:38:18;25.93;;;18.17;;
22172;SDS011;11252;50.596;17.648;2023-02-28T07:40:45;24.60;;;18.13;;
22172;SDS011;11252;50.596;17.648;2023-02-28T07:43:12;28.47;;;18.70;;
22172;SDS011;11252;50.596;17.648;2023-02-28T07:45:40;29.27;;;19.13;;
22172;SDS011;11252;50.596;17.648;2023-02-28T07:48:07;29.60;;;18.87;;
22172;SDS011;11252;50.596;17.648;2023-02-28T07:50:36;25.43;;;17.20;;
22172;SDS011;11252;50.596;17.648;2023-02-28T07:53:04;23.70;;;15.83;;
22172;SDS011;11252;50.596;17.648;2023-02-28T07:55:31;25.67;;;15.43;;
22172;SDS011;11252;50.596;17.648;2023-02-28T07:57:59;22.63;;;13.97;;
22172;SDS011;11252;50.596;17.648;2023-02-28T08:00:26;19.43;;;14.00;;
22172;SDS011;11252;50.596;17.648;2023-02-28T08:02:55;18.87;;;11.37;;
22172;SDS011;11252;50.596;17.648;2023-02-28T08:05:22;14.10;;;9.50;;
22172;SDS011;11252;50.596;17.648;2023-02-28T08:07:50;14.10;;;9.83;;
22172;SDS011;11252;50.596;17.648;2023-02-28T08:10:17;12.67;;;8.03;;
22172;SDS011;11252;50.596;17.648;2023-02-28T08:12:45;16.30;;;12.50;;
22172;SDS011;11252;50.596;17.648;2023-02-28T08:15:12;15.60;;;8.87;;
22172;SDS011;11252;50.596;17.648;2023-02-28T08:17:39;15.87;;;9.43;;
22172;SDS011;11252;50.596;17.648;2023-02-28T08:20:07;11.00;;;7.37;;
22172;SDS011;11252;50.596;17.648;2023-02-28T08:22:36;9.37;;;6.70;;
22172;SDS011;11252;50.596;17.648;2023-02-28T08:25:04;9.63;;;6.57;;
22172;SDS011;11252;50.596;17.648;2023-02-28T08:27:34;9.60;;;6.57;;
22172;SDS011;11252;50.596;17.648;2023-02-28T08:30:02;8.67;;;6.27;;
22172;SDS011;11252;50.596;17.648;2023-02-28T08:32:31;8.50;;;5.73;;
22172;SDS011;11252;50.596;17.648;2023-02-28T08:34:59;8.73;;;6.20;;
22172;SDS011;11252;50.596;17.648;2023-02-28T08:37:28;9.93;;;6.30;;
22172;SDS011;11252;50.596;17.648;2023-02-28T08:39:55;10.43;;;6.00;;
22172;SDS011;11252;50.596;17.648;2023-02-28T08:42:23;9.37;;;6.13;;
22172;SDS011;11252;50.596;17.648;2023-02-28T08:44:51;9.20;;;5.40;;
22172;SDS011;11252;50.596;17.648;2023-02-28T08:47:18;6.83;;;4.90;;
22172;SDS011;11252;50.596;17.648;2023-02-28T08:49:46;8.10;;;5.17;;
22172;SDS011;11252;50.596;17.648;2023-02-28T08:52:13;7.33;;;5.30;;
22172;SDS011;11252;50.596;17.648;2023-02-28T08:54:41;9.60;;;5.43;;
22172;SDS011;11252;50.596;17.648;2023-02-28T08:57:09;7.93;;;4.63;;
22172;SDS011;11252;50.596;17.648;2023-02-28T08:59:36;7.97;;;5.17;;
22172;SDS011;11252;50.596;17.648;2023-02-28T09:02:03;5.17;;;4.27;;
22172;SDS011;11252;50.596;17.648;2023-02-28T09:04:31;5.33;;;3.83;;
22172;SDS011;11252;50.596;17.648;2023-02-28T09:06:58;6.07;;;4.50;;
22172;SDS011;11252;50.596;17.648;2023-02-28T09:09:25;8.13;;;5.07;;
22172;SDS011;11252;50.596;17.648;2023-02-28T09:11:54;6.13;;;4.47;;
22172;SDS011;11252;50.596;17.648;2023-02-28T09:14:23;14.07;;;11.53;;
22172;SDS011;11252;50.596;17.648;2023-02-28T09:16:50;6.40;;;4.70;;
22172;SDS011;11252;50.596;17.648;2023-02-28T09:19:17;7.80;;;4.40;;
22172;SDS011;11252;50.596;17.648;2023-02-28T09:21:45;23.87;;;20.03;;
22172;SDS011;11252;50.596;17.648;2023-02-28T09:24:12;7.13;;;5.60;;
22172;SDS011;11252;50.596;17.648;2023-02-28T09:26:41;10.33;;;5.43;;
22172;SDS011;11252;50.596;17.648;2023-02-28T09:29:28;53.77;;;41.53;;
22172;SDS011;11252;50.596;17.648;2023-02-28T09:31:56;20.13;;;15.33;;
22172;SDS011;11252;50.596;17.648;2023-02-28T09:34:27;7.70;;;4.03;;
22172;SDS011;11252;50.596;17.648;2023-02-28T09:36:57;5.20;;;4.20;;
22172;SDS011;11252;50.596;17.648;2023-02-28T09:39:25;7.93;;;4.13;;
22172;SDS011;11252;50.596;17.648;2023-02-28T09:41:53;5.07;;;3.83;;
22172;SDS011;11252;50.596;17.648;2023-02-28T09:44:27;6.13;;;4.53;;
22172;SDS011;11252;50.596;17.648;2023-02-28T09:50:06;5.87;;;3.93;;
22172;SDS011;11252;50.596;17.648;2023-02-28T09:52:55;5.20;;;3.93;;
22172;SDS011;11252;50.596;17.648;2023-02-28T09:55:33;6.30;;;3.97;;
22172;SDS011;11252;50.596;17.648;2023-02-28T09:58:40;5.33;;;4.23;;
22172;SDS011;11252;50.596;17.648;2023-02-28T10:06:50;22.33;;;15.13;;
22172;SDS011;11252;50.596;17.648;2023-02-28T10:09:24;14.93;;;9.43;;
22172;SDS011;11252;50.596;17.648;2023-02-28T10:11:56;12.47;;;9.13;;
22172;SDS011;11252;50.596;17.648;2023-02-28T10:14:34;6.27;;;4.53;;
22172;SDS011;11252;50.596;17.648;2023-02-28T10:17:08;8.73;;;5.30;;
22172;SDS011;11252;50.596;17.648;2023-02-28T10:22:12;5.47;;;4.63;;
22172;SDS011;11252;50.596;17.648;2023-02-28T10:24:47;6.90;;;3.97;;
22172;SDS011;11252;50.596;17.648;2023-02-28T10:27:23;7.60;;;4.20;;
22172;SDS011;11252;50.596;17.648;2023-02-28T10:29:57;5.53;;;4.60;;
22172;SDS011;11252;50.596;17.648;2023-02-28T10:32:29;5.27;;;4.40;;
22172;SDS011;11252;50.596;17.648;2023-02-28T10:35:00;6.13;;;4.40;;
22172;SDS011;11252;50.596;17.648;2023-02-28T10:37:31;10.00;;;7.17;;
22172;SDS011;11252;50.596;17.648;2023-02-28T10:40:05;6.93;;;5.03;;
22172;SDS011;11252;50.596;17.648;2023-02-28T10:42:35;5.33;;;4.27;;
22172;SDS011;11252;50.596;17.648;2023-02-28T10:47:51;5.30;;;4.60;;
22172;SDS011;11252;50.596;17.648;2023-02-28T10:50:35;8.23;;;5.30;;
22172;SDS011;11252;50.596;17.648;2023-02-28T10:53:51;6.17;;;4.70;;
22172;SDS011;11252;50.596;17.648;2023-02-28T10:58:54;7.43;;;5.13;;
22172;SDS011;11252;50.596;17.648;2023-02-28T11:04:34;7.40;;;3.87;;
22172;SDS011;11252;50.596;17.648;2023-02-28T11:07:18;5.87;;;4.63;;
22172;SDS011;11252;50.596;17.648;2023-02-28T11:09:52;9.20;;;5.57;;
22172;SDS011;11252;50.596;17.648;2023-02-28T11:12:37;4.87;;;4.17;;
22172;SDS011;11252;50.596;17.648;2023-02-28T11:20:38;8.20;;;5.00;;
22172;SDS011;11252;50.596;17.648;2023-02-28T11:23:11;12.33;;;9.40;;
22172;SDS011;11252;50.596;17.648;2023-02-28T11:25:40;9.10;;;6.50;;
22172;SDS011;11252;50.596;17.648;2023-02-28T11:28:27;9.57;;;7.20;;
22172;SDS011;11252;50.596;17.648;2023-02-28T11:31:02;17.43;;;12.97;;
22172;SDS011;11252;50.596;17.648;2023-02-28T11:33:41;12.00;;;6.20;;
22172;SDS011;11252;50.596;17.648;2023-02-28T11:36:18;6.57;;;5.40;;
22172;SDS011;11252;50.596;17.648;2023-02-28T11:39:07;6.17;;;5.00;;
22172;SDS011;11252;50.596;17.648;2023-02-28T11:44:28;9.53;;;6.83;;
22172;SDS011;11252;50.596;17.648;2023-02-28T11:47:21;6.13;;;5.03;;
22172;SDS011;11252;50.596;17.648;2023-02-28T11:53:06;11.13;;;5.63;;
22172;SDS011;11252;50.596;17.648;2023-02-28T12:04:11;8.37;;;5.67;;
22172;SDS011;11252;50.596;17.648;2023-02-28T12:06:52;6.40;;;5.67;;
22172;SDS011;11252;50.596;17.648;2023-02-28T12:14:53;7.80;;;5.80;;
22172;SDS011;11252;50.596;17.648;2023-02-28T12:28:09;10.63;;;6.30;;
22172;SDS011;11252;50.596;17.648;2023-02-28T12:30:41;6.37;;;5.10;;
22172;SDS011;11252;50.596;17.648;2023-02-28T12:33:22;7.10;;;5.90;;
22172;SDS011;11252;50.596;17.648;2023-02-28T12:35:56;10.53;;;5.87;;
22172;SDS011;11252;50.596;17.648;2023-02-28T12:38:29;6.27;;;5.23;;
22172;SDS011;11252;50.596;17.648;2023-02-28T12:41:02;6.47;;;5.67;;
22172;SDS011;11252;50.596;17.648;2023-02-28T12:43:43;7.87;;;5.33;;
22172;SDS011;11252;50.596;17.648;2023-02-28T12:48:52;7.83;;;5.23;;
22172;SDS011;11252;50.596;17.648;2023-02-28T12:51:25;7.17;;;4.83;;
22172;SDS011;11252;50.596;17.648;2023-02-28T12:54:07;8.33;;;6.50;;
22172;SDS011;11252;50.596;17.648;2023-02-28T12:59:51;12.00;;;5.93;;
22172;SDS011;11252;50.596;17.648;2023-02-28T13:02:33;8.03;;;5.50;;
22172;SDS011;11252;50.596;17.648;2023-02-28T13:05:12;10.27;;;7.47;;
22172;SDS011;11252;50.596;17.648;2023-02-28T13:10:48;10.23;;;8.27;;
22172;SDS011;11252;50.596;17.648;2023-02-28T13:13:21;8.67;;;6.40;;
22172;SDS011;11252;50.596;17.648;2023-02-28T13:16:00;7.67;;;6.87;;
22172;SDS011;11252;50.596;17.648;2023-02-28T13:18:29;7.27;;;5.43;;
22172;SDS011;11252;50.596;17.648;2023-02-28T13:20:59;7.20;;;5.57;;
22172;SDS011;11252;50.596;17.648;2023-02-28T13:24:13;9.97;;;5.93;;
22172;SDS011;11252;50.596;17.648;2023-02-28T13:26:22;9.77;;;8.77;;
22172;SDS011;11252;50.596;17.648;2023-02-28T13:34:37;7.40;;;4.83;;
22172;SDS011;11252;50.596;17.648;2023-02-28T13:39:50;9.73;;;5.40;;
22172;SDS011;11252;50.596;17.648;2023-02-28T13:47:29;14.17;;;12.67;;
22172;SDS011;11252;50.596;17.648;2023-02-28T13:50:15;12.63;;;10.73;;
22172;SDS011;11252;50.596;17.648;2023-02-28T13:55:49;9.63;;;6.70;;
22172;SDS011;11252;50.596;17.648;2023-02-28T14:01:25;7.20;;;6.50;;
22172;SDS011;11252;50.596;17.648;2023-02-28T14:06:58;26.20;;;23.47;;
22172;SDS011;11252;50.596;17.648;2023-02-28T14:09:32;7.33;;;6.63;;
22172;SDS011;11252;50.596;17.648;2023-02-28T14:18:18;9.20;;;7.10;;
22172;SDS011;11252;50.596;17.648;2023-02-28T14:20:54;8.30;;;6.13;;
22172;SDS011;11252;50.596;17.648;2023-02-28T14:26:03;7.53;;;5.87;;
22172;SDS011;11252;50.596;17.648;2023-02-28T14:29:07;9.07;;;7.77;;
22172;SDS011;11252;50.596;17.648;2023-02-28T14:32:06;6.80;;;6.07;;
22172;SDS011;11252;50.596;17.648;2023-02-28T14:37:33;10.67;;;6.73;;
22172;SDS011;11252;50.596;17.648;2023-02-28T14:40:16;6.80;;;5.90;;
22172;SDS011;11252;50.596;17.648;2023-02-28T14:43:05;9.97;;;8.97;;
22172;SDS011;11252;50.596;17.648;2023-02-28T14:45:55;9.97;;;7.03;;
22172;SDS011;11252;50.596;17.648;2023-02-28T14:48:28;7.90;;;6.20;;
22172;SDS011;11252;50.596;17.648;2023-02-28T14:50:59;10.03;;;9.00;;
22172;SDS011;11252;50.596;17.648;2023-02-28T14:53:29;11.63;;;10.43;;
22172;SDS011;11252;50.596;17.648;2023-02-28T14:56:02;10.30;;;6.93;;
22172;SDS011;11252;50.596;17.648;2023-02-28T14:58:31;11.13;;;8.17;;
22172;SDS011;11252;50.596;17.648;2023-02-28T15:01:01;12.67;;;8.20;;
22172;SDS011;11252;50.596;17.648;2023-02-28T15:03:37;8.33;;;6.90;;
22172;SDS011;11252;50.596;17.648;2023-02-28T15:06:13;7.60;;;6.87;;
22172;SDS011;11252;50.596;17.648;2023-02-28T15:08:42;8.80;;;7.90;;
22172;SDS011;11252;50.596;17.648;2023-02-28T15:11:14;8.10;;;6.80;;
22172;SDS011;11252;50.596;17.648;2023-02-28T15:13:46;9.23;;;7.70;;
22172;SDS011;11252;50.596;17.648;2023-02-28T15:16:17;8.20;;;6.67;;
22172;SDS011;11252;50.596;17.648;2023-02-28T15:21:39;8.60;;;6.77;;
22172;SDS011;11252;50.596;17.648;2023-02-28T15:26:45;10.27;;;7.20;;
22172;SDS011;11252;50.596;17.648;2023-02-28T15:29:17;9.70;;;7.80;;
22172;SDS011;11252;50.596;17.648;2023-02-28T15:31:49;9.60;;;7.60;;
22172;SDS011;11252;50.596;17.648;2023-02-28T15:34:42;9.57;;;6.97;;
22172;SDS011;11252;50.596;17.648;2023-02-28T15:43:11;12.17;;;8.33;;
22172;SDS011;11252;50.596;17.648;2023-02-28T15:45:46;10.40;;;9.07;;
22172;SDS011;11252;50.596;17.648;2023-02-28T15:48:23;12.73;;;9.63;;
22172;SDS011;11252;50.596;17.648;2023-02-28T15:50:55;10.77;;;7.97;;
22172;SDS011;11252;50.596;17.648;2023-02-28T15:53:25;10.90;;;8.70;;
22172;SDS011;11252;50.596;17.648;2023-02-28T15:55:59;12.73;;;9.37;;
22172;SDS011;11252;50.596;17.648;2023-02-28T15:58:31;11.83;;;9.13;;
22172;SDS011;11252;50.596;17.648;2023-02-28T16:01:16;14.73;;;10.33;;
22172;SDS011;11252;50.596;17.648;2023-02-28T16:03:57;19.50;;;11.37;;
22172;SDS011;11252;50.596;17.648;2023-02-28T16:06:41;13.53;;;10.20;;
22172;SDS011;11252;50.596;17.648;2023-02-28T16:09:12;15.67;;;10.90;;
22172;SDS011;11252;50.596;17.648;2023-02-28T16:11:44;15.57;;;10.97;;
22172;SDS011;11252;50.596;17.648;2023-02-28T16:14:24;17.87;;;11.03;;
22172;SDS011;11252;50.596;17.648;2023-02-28T16:17:04;23.67;;;14.43;;
22172;SDS011;11252;50.596;17.648;2023-02-28T16:19:35;21.57;;;14.63;;
22172;SDS011;11252;50.596;17.648;2023-02-28T16:22:03;25.73;;;15.87;;
22172;SDS011;11252;50.596;17.648;2023-02-28T16:24:34;19.83;;;13.50;;
22172;SDS011;11252;50.596;17.648;2023-02-28T16:27:02;24.93;;;16.47;;
22172;SDS011;11252;50.596;17.648;2023-02-28T16:29:30;38.07;;;23.83;;
22172;SDS011;11252;50.596;17.648;2023-02-28T16:32:04;30.50;;;20.57;;
22172;SDS011;11252;50.596;17.648;2023-02-28T16:34:32;29.80;;;17.53;;
22172;SDS011;11252;50.596;17.648;2023-02-28T16:37:00;23.53;;;14.53;;
22172;SDS011;11252;50.596;17.648;2023-02-28T16:39:27;22.87;;;14.10;;
22172;SDS011;11252;50.596;17.648;2023-02-28T16:41:55;24.73;;;14.17;;
22172;SDS011;11252;50.596;17.648;2023-02-28T16:44:33;31.37;;;19.43;;
22172;SDS011;11252;50.596;17.648;2023-02-28T16:47:03;34.83;;;19.23;;
22172;SDS011;11252;50.596;17.648;2023-02-28T16:49:31;27.77;;;17.83;;
22172;SDS011;11252;50.596;17.648;2023-02-28T16:51:58;30.97;;;17.23;;
22172;SDS011;11252;50.596;17.648;2023-02-28T16:54:25;22.67;;;15.73;;
22172;SDS011;11252;50.596;17.648;2023-02-28T16:56:53;24.93;;;14.47;;
22172;SDS011;11252;50.596;17.648;2023-02-28T16:59:22;25.77;;;14.53;;
22172;SDS011;11252;50.596;17.648;2023-02-28T17:01:51;27.37;;;14.47;;
22172;SDS011;11252;50.596;17.648;2023-02-28T17:04:19;27.57;;;14.47;;
22172;SDS011;11252;50.596;17.648;2023-02-28T17:06:47;21.37;;;14.20;;
22172;SDS011;11252;50.596;17.648;2023-02-28T17:09:18;29.00;;;15.73;;
22172;SDS011;11252;50.596;17.648;2023-02-28T17:11:56;30.37;;;16.17;;
22172;SDS011;11252;50.596;17.648;2023-02-28T17:14:23;37.83;;;19.40;;
22172;SDS011;11252;50.596;17.648;2023-02-28T17:16:51;31.63;;;19.80;;
22172;SDS011;11252;50.596;17.648;2023-02-28T17:19:18;39.93;;;19.40;;